Terminal Aerodrome Forecast
Issued by NWS

Home | Current Version | Previous Version | Text Only | Print | Product List | Glossary On
Versions: 1 2 3 4 5 6 7 8 9 10 11 12 13 14 15 16
511
FTUS43 KMQT 270527
TAFSAW
TAF
KSAW 270527Z 2706/2806 36004KT 2SM -RA BR OVC003
     FM270700 35005KT 1SM BR OVC003
     FM271400 36005KT 3SM BR OVC003
     FM271600 36006KT P6SM OVC003
     FM271900 36006KT P6SM OVC008
     FM272200 36006KT P6SM OVC010
     FM280300 36005KT P6SM BKN020=

USA.gov is the U.S. government's official web portal to all federal, state and local government web resources and services.